Sheboygan, WI (SGNW3)

Conditions for Monday

Daily
Weekly
Monthly
Marine Data Graph
Ad Blocker Enabled

Marine & Boating Location Search

Enter a coastal zip code for marine weather.

General Information

Location: 43.749 -87.693
Buoy Type: C-MAN Station
Payload: Sutron XPERT payload
Owned by: NDBC
Windspeed: Measured by obtained from anemometer
Sea Surface: Measured by Intake

Weather and Wave Data

Time Temp Humidity Wind Pressure
  Air
(°F)
Water
(°F)
  Dir Speed
(kts)
Speed
(mph)
Atmo.
(in)
Tend.
(in)
20:00 44 46 52 North 14.0 16.1 30.32 -
21:00 42 46 52 NNW 11.0 12.7 30.33 -
22:00 43 46 47 North 15.0 17.3 30.33 -
23:00 41 46 50 NNW 9.0 10.4 30.33 +0.01
00:00 40 46 49 NNW 10.0 11.5 30.32 -
01:00 41 46 53 NNW 13.0 15.0 30.32 -0.01
02:00 42 46 62 North 16.0 18.4 30.32 -0.01
03:00 41 46 50 NNW 14.0 16.1 30.32 -
04:00 43 45 49 North 17.0 19.6 30.31 -0.01
05:00 41 45 42 North 15.0 17.3 30.32 -
06:00 40 45 47 NNW 17.0 19.6 30.33 +0.01
07:00 39 45 65 NNW 14.0 16.1 30.34 +0.03
08:00 38 45 73 NNW 14.0 16.1 30.35 +0.02
09:00 40 45 71 North 15.0 17.3 30.34 +0.01
10:00 42 44 62 North 19.0 21.9 30.33 -0.01
11:00 44 44 53 North 22.0 25.3 30.32 -0.03
12:00 45 44 50 North 23.0 26.5 30.32 -0.03
13:00 45 45 54 NNE 18.0 20.7 30.30 -0.03
14:00 45 45 55 North 18.0 20.7 30.28 -0.04
15:00 46 46 44 North 20.0 23.0 30.27 -0.05
16:00 46 46 43 North 20.0 23.0 30.26 -0.04
17:00 47 46 37 North 23.0 26.5 30.24 -0.04
18:00 46 46 40 North 20.0 23.0 30.23 -0.04
20:00 45 45 48 North 20.0 23.0 30.21 -0.04
21:00 45 45 39 North 32.0 36.8 30.19 -0.04
22:00 44 45 40 North 26.0 29.9 30.16 -0.07
23:00 43 45 44 North 27.0 31.1 30.13 -0.07
00:00 42 45 53 North 25.0 28.8 30.11 -0.08
01:00 42 44 53 North 26.0 29.9 30.07 -0.09
02:00 41 44 60 North 24.0 27.6 30.04 -0.09
03:00 41 44 56 North 28.0 32.2 30.02 -0.09

Detailed Wave Spectra